Covington, Louisiana
Current Conditions -  °F | °C
As of 2:53 AM on Thursday 23 Oct 2014 (Local Time) from KASD Reporting Station
Clear Clear  
Wind Chill: 50°   Ceiling: Unl
Heat Index: 50°   Visibility: 10mi
Dew Point: 47°   Wind: 5mph
Humidity: 89%   Direction: 10°N
Pressure: 30.07"   Gusts: NA
Location:  30.48°N, 90.09°W
Report Text: KASD 230753Z AUTO 01004KT 10SM CLR 10/08 A3007 RMK AO2 SLP182 T01000083
Loading
Personal Weather Stations






























Interactive Weather Map
Tropical Storm Tracking
New forecast layout! Learn more

10-Day Weather Forecast

Advertisements
Track Severe Weather on mobile